createdAt,value
2018-12-13T00:01:06.204Z,100187.89
2018-12-13T00:03:33.665Z,100186.79
2018-12-13T00:06:01.120Z,100182.92
2018-12-13T00:08:28.558Z,100179.30
2018-12-13T00:10:55.975Z,100181.08
2018-12-13T00:13:23.414Z,100179.60
2018-12-13T00:15:50.869Z,100174.61
2018-12-13T00:18:18.292Z,100152.77
2018-12-13T00:20:45.723Z,100155.20
2018-12-13T00:23:13.159Z,100159.82
2018-12-13T00:25:40.622Z,100147.79
2018-12-13T00:28:09.136Z,100149.91
2018-12-13T00:30:36.581Z,100151.83
2018-12-13T00:33:04.036Z,100149.91
2018-12-13T00:35:31.518Z,100148.50
2018-12-13T00:37:58.977Z,100137.19
2018-12-13T00:40:26.412Z,100143.77
2018-12-13T00:42:53.836Z,100142.98
2018-12-13T00:45:21.272Z,100140.09
2018-12-13T00:47:48.718Z,100143.11
2018-12-13T00:50:16.144Z,100133.22
2018-12-13T00:52:43.563Z,100139.88
2018-12-13T00:55:11.053Z,100137.06
2018-12-13T00:57:38.481Z,100138.91
2018-12-13T01:00:05.936Z,100144.33
2018-12-13T01:02:33.342Z,100140.58
2018-12-13T01:05:00.790Z,100139.11
2018-12-13T01:07:28.255Z,100139.16
2018-12-13T01:09:56.225Z,100137.69
2018-12-13T01:12:25.062Z,100141.67
2018-12-13T01:14:52.482Z,100141.85
2018-12-13T01:17:20.037Z,100133.62
2018-12-13T01:19:47.459Z,100125.42
2018-12-13T01:22:14.874Z,100117.97
2018-12-13T01:24:42.312Z,100113.62
2018-12-13T01:27:09.739Z,100115.23
2018-12-13T01:29:37.166Z,100114.08
2018-12-13T01:32:04.597Z,100111.97
2018-12-13T01:34:32.040Z,100113.58
2018-12-13T01:36:59.469Z,100110.72
2018-12-13T01:39:26.898Z,100110.63
2018-12-13T01:41:54.319Z,100108.41
2018-12-13T01:44:21.785Z,100112.75
2018-12-13T01:46:49.204Z,100105.66
2018-12-13T01:49:16.665Z,100113.04
2018-12-13T01:51:44.095Z,100112.47
2018-12-13T01:54:11.545Z,100111.43
2018-12-13T01:56:38.955Z,100115.31
2018-12-13T01:59:06.413Z,100110.22
2018-12-13T02:01:33.849Z,100108.97
2018-12-13T02:04:01.269Z,100108.36
2018-12-13T02:06:28.746Z,100107.27
2018-12-13T02:08:56.175Z,100105.02
2018-12-13T02:11:23.617Z,100105.85
2018-12-13T02:13:51.055Z,100117.61
2018-12-13T02:16:18.497Z,100113.13
2018-12-13T02:18:45.915Z,100113.50
2018-12-13T02:21:13.369Z,100105.16
2018-12-13T02:23:40.822Z,100105.11
2018-12-13T02:26:08.527Z,100107.17
2018-12-13T02:28:35.977Z,100107.97
2018-12-13T02:31:03.411Z,100111.45
2018-12-13T02:33:30.848Z,100101.31
2018-12-13T02:35:58.290Z,100090.83
2018-12-13T02:38:25.740Z,100084.84
2018-12-13T02:40:53.185Z,100082.94
2018-12-13T02:43:20.614Z,100079.24
2018-12-13T02:45:48.043Z,100086.69
2018-12-13T02:48:15.501Z,100087.59
2018-12-13T02:50:42.920Z,100074.13
2018-12-13T02:53:10.390Z,100076.05
2018-12-13T02:55:37.825Z,100077.06
2018-12-13T02:58:05.281Z,100067.06
2018-12-13T03:00:32.710Z,100060.08
2018-12-13T03:03:00.164Z,100057.95
2018-12-13T03:05:27.585Z,100068.36
2018-12-13T03:07:55.046Z,100053.97
2018-12-13T03:10:22.474Z,100054.13
2018-12-13T03:12:49.912Z,100047.67
2018-12-13T03:15:17.349Z,100050.83
2018-12-13T03:17:45.676Z,100053.05
2018-12-13T03:20:13.202Z,100056.88
2018-12-13T03:22:40.671Z,100055.77
2018-12-13T03:25:08.095Z,100043.28
2018-12-13T03:27:35.540Z,100045.36
2018-12-13T03:30:03.031Z,100047.08
2018-12-13T03:32:30.458Z,100048.09
2018-12-13T03:34:57.900Z,100041.91
2018-12-13T03:37:25.344Z,100040.17
2018-12-13T03:39:52.786Z,100039.68
2018-12-13T03:42:20.302Z,100037.59
2018-12-13T03:44:47.711Z,100039.34
2018-12-13T03:47:15.169Z,100038.42
2018-12-13T03:49:42.609Z,100038.81
2018-12-13T03:52:10.083Z,100043.64
2018-12-13T03:54:37.503Z,100036.48
2018-12-13T03:57:04.970Z,100036.52
2018-12-13T03:59:32.390Z,100030.96
2018-12-13T04:01:59.833Z,100033.37
2018-12-13T04:04:27.287Z,100031.73
2018-12-13T04:06:54.719Z,100031.78
2018-12-13T04:09:22.160Z,100030.83
2018-12-13T04:11:49.596Z,100030.48
2018-12-13T04:14:17.054Z,100021.52
2018-12-13T04:16:44.500Z,100020.87
2018-12-13T04:19:11.928Z,100013.31
2018-12-13T04:21:39.361Z,100019.46
2018-12-13T04:24:06.861Z,100017.59
2018-12-13T04:26:34.272Z,100008.83
2018-12-13T04:29:02.996Z,100014.01
2018-12-13T04:31:30.417Z,100018.45
2018-12-13T04:33:57.852Z,100013.52
2018-12-13T04:36:25.266Z,100010.84
2018-12-13T04:38:52.710Z,100011.09
2018-12-13T04:41:20.116Z,100002.81
2018-12-13T04:43:47.559Z,100002.53
2018-12-13T04:46:14.980Z,100006.04
2018-12-13T04:48:42.415Z,100005.37
2018-12-13T04:51:10.671Z,99997.23
2018-12-13T04:53:38.217Z,99997.19
2018-12-13T04:56:05.646Z,99995.56
2018-12-13T04:58:33.074Z,99988.47
2018-12-13T05:01:00.569Z,99981.27
2018-12-13T05:03:27.974Z,99985.67
2018-12-13T05:05:55.385Z,99986.45
2018-12-13T05:08:22.830Z,99981.05
2018-12-13T05:10:50.239Z,99979.80
2018-12-13T05:13:17.674Z,99974.00
2018-12-13T05:15:45.107Z,99979.11
2018-12-13T05:18:12.543Z,99978.19
2018-12-13T05:20:39.995Z,99981.02
2018-12-13T05:23:07.422Z,99977.91
2018-12-13T05:25:35.822Z,99974.31
2018-12-13T05:28:03.349Z,99977.08
2018-12-13T05:30:30.895Z,99969.38
2018-12-13T05:32:58.338Z,99967.53
2018-12-13T05:35:25.786Z,99966.75
2018-12-13T05:37:53.200Z,99964.19
2018-12-13T05:40:20.631Z,99968.17
2018-12-13T05:42:48.031Z,99961.42
2018-12-13T05:45:15.463Z,99962.94
2018-12-13T05:47:42.896Z,99967.74
2018-12-13T05:50:10.342Z,99967.64
2018-12-13T05:52:37.772Z,99968.96
2018-12-13T05:55:05.233Z,99969.45
2018-12-13T05:57:32.683Z,99983.62
2018-12-13T06:00:00.101Z,99984.59
2018-12-13T06:02:27.537Z,99982.22
2018-12-13T06:04:54.991Z,99986.98
2018-12-13T06:07:22.413Z,99989.94
2018-12-13T06:09:49.868Z,99991.36
2018-12-13T06:12:17.279Z,99996.91
2018-12-13T06:14:44.729Z,99993.06
2018-12-13T06:17:12.143Z,99992.52
2018-12-13T06:19:39.591Z,99989.27
2018-12-13T06:22:07.006Z,99995.30
2018-12-13T06:24:35.928Z,99998.41
2018-12-13T06:27:03.408Z,99996.81
2018-12-13T06:29:30.890Z,99999.67
2018-12-13T06:31:58.319Z,100001.42
2018-12-13T06:34:25.767Z,100004.77
2018-12-13T06:36:53.205Z,100003.62
2018-12-13T06:39:20.680Z,100001.03
2018-12-13T06:41:48.178Z,100002.20
2018-12-13T06:44:15.609Z,100006.63
2018-12-13T06:46:43.056Z,100003.67
2018-12-13T06:49:10.481Z,99998.11
2018-12-13T06:51:37.927Z,99999.83
2018-12-13T06:54:05.351Z,100003.47
2018-12-13T06:56:32.802Z,99996.89
2018-12-13T06:59:00.266Z,99991.73
2018-12-13T07:01:27.745Z,99989.89
2018-12-13T07:03:55.162Z,99992.27
2018-12-13T07:06:22.583Z,99991.64
2018-12-13T07:08:50.027Z,99994.05
2018-12-13T07:11:17.472Z,99988.37
2018-12-13T07:13:44.894Z,99992.36
2018-12-13T07:16:12.307Z,99998.63
2018-12-13T07:18:39.751Z,99996.71
2018-12-13T07:21:07.160Z,100003.34
2018-12-13T07:23:34.620Z,100000.56
2018-12-13T07:26:02.030Z,99990.59
2018-12-13T07:28:29.468Z,99997.09
2018-12-13T07:30:56.906Z,99991.88
2018-12-13T07:33:24.350Z,99992.11
2018-12-13T07:35:51.781Z,99998.84
2018-12-13T07:38:19.196Z,99999.52
2018-12-13T07:40:46.629Z,100008.01
2018-12-13T07:43:14.053Z,100015.78
2018-12-13T07:45:41.486Z,100016.27
2018-12-13T07:48:08.927Z,100017.50
2018-12-13T07:50:36.388Z,100010.49
2018-12-13T07:53:03.846Z,100024.05
2018-12-13T07:55:31.300Z,100016.57
2018-12-13T07:57:58.732Z,100022.52
2018-12-13T08:00:26.179Z,100026.77
2018-12-13T08:02:53.600Z,100028.92
2018-12-13T08:05:21.045Z,100027.37
2018-12-13T08:07:48.480Z,100025.97
2018-12-13T08:10:15.912Z,100022.17
2018-12-13T08:12:43.348Z,100025.19
2018-12-13T08:15:10.781Z,100022.38
2018-12-13T08:17:38.209Z,100030.23
2018-12-13T08:20:05.661Z,100022.31
2018-12-13T08:22:33.110Z,100023.02
2018-12-13T08:25:00.537Z,100019.73
2018-12-13T08:27:27.975Z,100021.61
2018-12-13T08:29:55.413Z,100017.36
2018-12-13T08:32:22.848Z,100018.30
2018-12-13T08:34:50.286Z,100019.09
2018-12-13T08:37:17.747Z,100022.98
2018-12-13T08:39:45.161Z,100023.52
2018-12-13T08:42:12.594Z,100020.92
2018-12-13T08:44:40.033Z,100012.92
2018-12-13T08:47:07.608Z,100017.08
2018-12-13T08:49:35.037Z,100012.22
2018-12-13T08:52:03.590Z,100014.11
2018-12-13T08:54:31.227Z,100011.75
2018-12-13T08:56:58.662Z,100015.59
2018-12-13T08:59:26.098Z,100020.09
2018-12-13T09:01:53.516Z,100014.63
2018-12-13T09:04:20.974Z,100010.30
2018-12-13T09:06:48.406Z,100011.03
2018-12-13T09:09:15.843Z,100015.72
2018-12-13T09:11:43.255Z,100016.73
2018-12-13T09:14:10.685Z,100016.89
2018-12-13T09:16:38.102Z,100008.92
2018-12-13T09:19:05.558Z,100017.36
2018-12-13T09:21:32.999Z,100015.69
2018-12-13T09:24:00.444Z,100011.86
2018-12-13T09:26:27.879Z,100013.91
2018-12-13T09:28:55.312Z,100016.78
2018-12-13T09:31:22.769Z,100017.86
2018-12-13T09:33:50.306Z,100019.43
2018-12-13T09:36:17.764Z,100012.56
2018-12-13T09:38:45.247Z,100016.67
2018-12-13T09:41:12.683Z,100015.59
2018-12-13T09:43:40.129Z,100004.56
2018-12-13T09:46:08.719Z,100007.67
2018-12-13T09:48:36.155Z,100006.34
2018-12-13T09:51:03.598Z,100006.97
2018-12-13T09:53:31.036Z,100001.84
2018-12-13T09:55:58.469Z,100000.22
2018-12-13T09:58:25.943Z,100005.52
2018-12-13T10:00:53.381Z,99994.91
2018-12-13T10:03:20.799Z,99998.94
2018-12-13T10:05:48.227Z,99987.34
2018-12-13T10:08:15.664Z,99990.73
2018-12-13T10:10:43.091Z,99984.66
2018-12-13T10:13:10.867Z,99990.86
2018-12-13T10:15:37.987Z,99989.54
2018-12-13T10:18:05.434Z,99985.73
2018-12-13T10:20:32.897Z,99984.39
2018-12-13T10:23:00.331Z,99978.36
2018-12-13T10:25:28.532Z,99982.69
2018-12-13T10:27:55.978Z,99977.13
2018-12-13T10:30:23.399Z,99973.88
2018-12-13T10:32:50.825Z,99971.20
2018-12-13T10:35:18.263Z,99970.91
2018-12-13T10:37:45.667Z,99967.45
2018-12-13T10:40:13.101Z,99961.81
2018-12-13T10:42:40.537Z,99968.56
2018-12-13T10:45:07.985Z,99957.88
2018-12-13T10:47:35.383Z,99955.69
2018-12-13T10:50:02.829Z,99956.55
2018-12-13T10:52:30.250Z,99963.56
2018-12-13T10:54:57.674Z,99953.34
2018-12-13T10:57:25.105Z,99953.34
2018-12-13T10:59:53.998Z,99950.91
2018-12-13T11:02:27.171Z,99948.14
2018-12-13T11:04:54.597Z,99947.47
2018-12-13T11:07:22.003Z,99942.78
2018-12-13T11:09:49.448Z,99944.73
2018-12-13T11:12:16.914Z,99943.48
2018-12-13T11:14:44.327Z,99937.59
2018-12-13T11:17:11.755Z,99933.45
2018-12-13T11:19:39.185Z,99939.00
2018-12-13T11:22:06.594Z,99944.16
2018-12-13T11:24:34.022Z,99934.91
2018-12-13T11:27:13.083Z,99930.83
2018-12-13T11:29:59.449Z,99923.91
2018-12-13T11:32:26.870Z,99925.52
2018-12-13T11:34:54.333Z,99925.67
2018-12-13T11:37:21.747Z,99923.91
2018-12-13T11:39:49.304Z,99914.67
2018-12-13T11:42:16.693Z,99919.69
2018-12-13T11:44:44.119Z,99915.26
2018-12-13T11:47:11.526Z,99915.02
2018-12-13T11:49:38.959Z,99919.28
2018-12-13T11:52:06.381Z,99914.08
2018-12-13T11:54:33.821Z,99908.14
2018-12-13T11:57:01.258Z,99899.34
2018-12-13T11:59:28.706Z,99909.06
2018-12-13T12:01:56.131Z,99903.27
2018-12-13T12:04:23.566Z,99902.65
2018-12-13T12:06:50.997Z,99898.49
2018-12-13T12:09:18.442Z,99898.97
2018-12-13T12:11:45.863Z,99889.83
2018-12-13T12:14:13.306Z,99884.88
2018-12-13T12:16:40.748Z,99882.55
2018-12-13T12:19:08.175Z,99881.36
2018-12-13T12:21:35.623Z,99882.97
2018-12-13T12:24:03.060Z,99872.34
2018-12-13T12:26:30.493Z,99871.52
2018-12-13T12:28:57.940Z,99867.48
2018-12-13T12:31:25.416Z,99869.71
2018-12-13T12:33:52.827Z,99864.66
2018-12-13T12:36:20.261Z,99863.92
2018-12-13T12:38:47.692Z,99859.63
2018-12-13T12:41:15.106Z,99859.70
2018-12-13T12:43:42.547Z,99857.73
2018-12-13T12:46:09.967Z,99856.92
2018-12-13T12:48:37.407Z,99855.95
2018-12-13T12:51:04.835Z,99857.25
2018-12-13T12:53:32.274Z,99852.38
2018-12-13T12:55:59.716Z,99850.16
2018-12-13T12:58:27.154Z,99848.11
2018-12-13T13:00:54.586Z,99845.42
2018-12-13T13:03:22.029Z,99842.03
2018-12-13T13:05:49.458Z,99839.70
2018-12-13T13:08:17.000Z,99841.95
2018-12-13T13:10:44.421Z,99845.72
2018-12-13T13:13:11.853Z,99838.31
2018-12-13T13:15:39.296Z,99838.27
2018-12-13T13:18:07.660Z,99830.70
2018-12-13T13:20:35.182Z,99831.63
2018-12-13T13:23:02.625Z,99825.48
2018-12-13T13:25:30.055Z,99831.50
2018-12-13T13:27:57.504Z,99825.02
2018-12-13T13:30:24.910Z,99829.04
2018-12-13T13:32:52.347Z,99814.04
2018-12-13T13:35:19.772Z,99819.73
2018-12-13T13:37:47.229Z,99820.48
2018-12-13T13:40:15.771Z,99818.08
2018-12-13T13:42:43.389Z,99819.84
2018-12-13T13:45:10.832Z,99813.09
2018-12-13T13:47:38.273Z,99814.39
2018-12-13T13:50:05.695Z,99819.92
2018-12-13T13:52:33.133Z,99822.73
2018-12-13T13:55:00.657Z,99813.48
2018-12-13T13:57:28.098Z,99813.53
2018-12-13T13:59:55.509Z,99816.65
2018-12-13T14:02:22.938Z,99814.63
2018-12-13T14:04:50.400Z,99822.49
2018-12-13T14:07:17.831Z,99824.04
2018-12-13T14:09:45.239Z,99823.80
2018-12-13T14:12:12.667Z,99820.66
2018-12-13T14:14:40.418Z,99828.20
2018-12-13T14:17:07.873Z,99831.33
2018-12-13T14:19:35.293Z,99829.62
2018-12-13T14:22:02.725Z,99828.04
2018-12-13T14:24:30.150Z,99831.25
2018-12-13T14:26:57.563Z,99834.33
2018-12-13T14:29:24.998Z,99835.63
2018-12-13T14:31:52.410Z,99834.72
2018-12-13T14:34:19.865Z,99832.59
2018-12-13T14:36:47.287Z,99836.36
2018-12-13T14:39:15.076Z,99836.61
2018-12-13T14:41:42.561Z,99844.85
2018-12-13T14:44:10.000Z,99848.21
2018-12-13T14:46:37.431Z,99841.14
2018-12-13T14:49:05.588Z,99841.44
2018-12-13T14:51:33.110Z,99849.72
2018-12-13T14:54:00.533Z,99841.05
2018-12-13T14:56:27.973Z,99849.19
2018-12-13T14:58:55.399Z,99851.22
2018-12-13T15:01:22.863Z,99852.88
2018-12-13T15:03:50.294Z,99851.81
2018-12-13T15:06:17.719Z,99850.36
2018-12-13T15:08:45.209Z,99865.98
2018-12-13T15:11:12.622Z,99861.26
2018-12-13T15:13:40.050Z,99863.69
2018-12-13T15:16:07.523Z,99870.45
2018-12-13T15:18:34.963Z,99864.14
2018-12-13T15:21:02.396Z,99863.98
2018-12-13T15:23:30.828Z,99859.42
2018-12-13T15:25:59.649Z,99862.43
2018-12-13T15:28:27.095Z,99859.13
2018-12-13T15:30:54.509Z,99860.34
2018-12-13T15:33:21.967Z,99857.08
2018-12-13T15:35:49.457Z,99866.76
2018-12-13T15:38:16.894Z,99870.70
2018-12-13T15:40:44.330Z,99866.13
2018-12-13T15:43:11.747Z,99863.98
2018-12-13T15:45:39.189Z,99857.66
2018-12-13T15:48:07.420Z,99863.89
2018-12-13T15:50:34.964Z,99858.83
2018-12-13T15:53:02.390Z,99859.90
2018-12-13T15:55:29.829Z,99868.77
2018-12-13T15:57:57.253Z,99858.98
2018-12-13T16:00:24.699Z,99866.97
2018-12-13T16:02:52.118Z,99864.86
2018-12-13T16:05:19.580Z,99865.30
2018-12-13T16:07:47.008Z,99871.19
2018-12-13T16:10:14.464Z,99869.96
2018-12-13T16:12:41.896Z,99868.72
2018-12-13T16:15:09.304Z,99861.47
2018-12-13T16:17:36.741Z,99860.98
2018-12-13T16:20:04.174Z,99868.91
2018-12-13T16:22:31.607Z,99865.05
2018-12-13T16:24:59.024Z,99864.14
2018-12-13T16:27:26.463Z,99860.30
2018-12-13T16:29:53.899Z,99856.78
2018-12-13T16:32:21.493Z,99857.33
2018-12-13T16:34:48.907Z,99859.96
2018-12-13T16:37:16.416Z,99860.88
2018-12-13T16:39:43.844Z,99857.86
2018-12-13T16:42:11.275Z,99857.91
2018-12-13T16:44:38.725Z,99857.23
2018-12-13T16:47:06.158Z,99859.85
2018-12-13T16:49:33.581Z,99854.61
2018-12-13T16:52:01.015Z,99849.73
2018-12-13T16:54:28.418Z,99852.85
2018-12-13T16:56:55.876Z,99853.69
2018-12-13T16:59:23.303Z,99853.00
2018-12-13T17:01:50.762Z,99854.08
2018-12-13T17:04:18.186Z,99855.81
2018-12-13T17:06:45.623Z,99858.41
2018-12-13T17:09:13.086Z,99858.59
2018-12-13T17:11:40.502Z,99858.21
2018-12-13T17:14:08.744Z,99860.14
2018-12-13T17:16:36.179Z,99851.39
2018-12-13T17:19:03.620Z,99852.18
2018-12-13T17:21:31.035Z,99848.23
2018-12-13T17:23:58.459Z,99853.25
2018-12-13T17:26:25.895Z,99857.33
2018-12-13T17:28:53.360Z,99854.56
2018-12-13T17:31:20.878Z,99849.44
2018-12-13T17:33:48.349Z,99841.80
2018-12-13T17:36:15.777Z,99841.37
2018-12-13T17:38:43.220Z,99844.73
2018-12-13T17:41:10.648Z,99843.51
2018-12-13T17:43:38.091Z,99844.34
2018-12-13T17:46:05.544Z,99847.34
2018-12-13T17:48:32.960Z,99844.43
2018-12-13T17:51:00.396Z,99849.39
2018-12-13T17:53:27.840Z,99847.16
2018-12-13T17:55:55.300Z,99845.98
2018-12-13T17:58:22.752Z,99850.95
2018-12-13T18:00:50.192Z,99842.23
2018-12-13T18:03:17.653Z,99851.94
2018-12-13T18:05:45.636Z,99852.66
2018-12-13T18:08:13.118Z,99847.11
2018-12-13T18:10:40.554Z,99845.22
2018-12-13T18:13:07.966Z,99853.58
2018-12-13T18:15:35.413Z,99853.68
2018-12-13T18:18:02.843Z,99850.85
2018-12-13T18:20:30.260Z,99851.16
2018-12-13T18:22:57.691Z,99847.70
2018-12-13T18:25:25.128Z,99851.73
2018-12-13T18:27:52.699Z,99853.19
2018-12-13T18:30:20.140Z,99853.47
2018-12-13T18:32:47.589Z,99847.68
2018-12-13T18:35:15.025Z,99851.13
2018-12-13T18:37:42.534Z,99849.53
2018-12-13T18:40:09.969Z,99846.41
2018-12-13T18:42:37.399Z,99851.28
2018-12-13T18:45:04.845Z,99850.83
2018-12-13T18:47:32.299Z,99847.78
2018-12-13T18:50:01.664Z,99843.80
2018-12-13T18:52:29.160Z,99846.22
2018-12-13T18:54:56.667Z,99843.31
2018-12-13T18:57:24.152Z,99848.22
2018-12-13T18:59:51.607Z,99849.73
2018-12-13T19:02:19.070Z,99852.59
2018-12-13T19:04:46.577Z,99847.53
2018-12-13T19:07:14.004Z,99854.59
2018-12-13T19:09:41.489Z,99845.59
2018-12-13T19:12:08.964Z,99848.52
2018-12-13T19:14:36.382Z,99850.20
2018-12-13T19:17:03.824Z,99849.67
2018-12-13T19:19:31.267Z,99855.27
2018-12-13T19:21:58.755Z,99861.50
2018-12-13T19:24:26.214Z,99865.92
2018-12-13T19:26:53.702Z,99873.13
2018-12-13T19:29:21.147Z,99875.11
2018-12-13T19:31:48.579Z,99874.30
2018-12-13T19:34:16.854Z,99874.92
2018-12-13T19:36:44.399Z,99870.00
2018-12-13T19:39:11.815Z,99869.67
2018-12-13T19:41:39.255Z,99871.28
2018-12-13T19:44:06.716Z,99874.06
2018-12-13T19:46:34.165Z,99876.97
2018-12-13T19:49:01.678Z,99880.58
2018-12-13T19:51:29.124Z,99878.77
2018-12-13T19:53:56.594Z,99890.78
2018-12-13T19:56:23.994Z,99889.53
2018-12-13T19:58:51.463Z,99897.98
2018-12-13T20:01:18.903Z,99900.03
2018-12-13T20:03:46.341Z,99899.45
2018-12-13T20:06:13.805Z,99890.10
2018-12-13T20:08:41.259Z,99889.91
2018-12-13T20:11:08.674Z,99890.69
2018-12-13T20:13:36.142Z,99896.95
2018-12-13T20:16:03.611Z,99897.41
2018-12-13T20:18:31.034Z,99897.64
2018-12-13T20:20:58.532Z,99897.80
2018-12-13T20:23:25.979Z,99895.07
2018-12-13T20:25:53.430Z,99898.41
2018-12-13T20:28:20.981Z,99899.05
2018-12-13T20:30:48.434Z,99902.21
2018-12-13T20:33:15.863Z,99900.41
2018-12-13T20:35:43.312Z,99904.83
2018-12-13T20:38:10.724Z,99902.27
2018-12-13T20:40:38.202Z,99903.47
2018-12-13T20:43:05.667Z,99905.66
2018-12-13T20:45:33.113Z,99909.16
2018-12-13T20:48:00.547Z,99917.85
2018-12-13T20:50:27.991Z,99922.19
2018-12-13T20:52:55.403Z,99927.88
2018-12-13T20:55:22.827Z,99919.56
2018-12-13T20:57:50.277Z,99925.64
2018-12-13T21:00:17.716Z,99927.77
2018-12-13T21:02:45.159Z,99928.28
2018-12-13T21:05:12.706Z,99922.23
2018-12-13T21:07:40.153Z,99923.97
2018-12-13T21:10:07.618Z,99929.61
2018-12-13T21:12:35.051Z,99927.56
2018-12-13T21:15:02.499Z,99927.28
2018-12-13T21:17:29.954Z,99928.92
2018-12-13T21:19:57.394Z,99925.93
2018-12-13T21:22:24.799Z,99927.48
2018-12-13T21:24:52.271Z,99927.38
2018-12-13T21:27:19.697Z,99928.98
2018-12-13T21:29:47.149Z,99930.92
2018-12-13T21:32:14.586Z,99925.28
2018-12-13T21:34:42.027Z,99928.25
2018-12-13T21:37:09.464Z,99926.11
2018-12-13T21:39:36.903Z,99919.89
2018-12-13T21:42:04.355Z,99924.72
2018-12-13T21:44:31.807Z,99923.60
2018-12-13T21:46:59.267Z,99925.23
2018-12-13T21:49:26.689Z,99923.84
2018-12-13T21:51:54.116Z,99918.83
2018-12-13T21:54:21.544Z,99917.33
2018-12-13T21:56:48.985Z,99918.02
2018-12-13T21:59:16.416Z,99915.72
2018-12-13T22:01:43.913Z,99920.67
2018-12-13T22:04:11.341Z,99927.42
2018-12-13T22:06:38.763Z,99922.23
2018-12-13T22:09:06.279Z,99916.48
2018-12-13T22:11:36.200Z,99923.97
2018-12-13T22:14:03.945Z,99931.56
2018-12-13T22:16:31.413Z,99931.31
2018-12-13T22:18:58.848Z,99923.63
2018-12-13T22:21:26.316Z,99921.55
2018-12-13T22:23:53.757Z,99923.30
2018-12-13T22:26:21.191Z,99921.69
2018-12-13T22:28:48.655Z,99929.70
2018-12-13T22:31:16.095Z,99928.00
2018-12-13T22:33:43.517Z,99924.17
2018-12-13T22:36:10.956Z,99929.38
2018-12-13T22:38:38.405Z,99932.00
2018-12-13T22:41:05.854Z,99934.24
2018-12-13T22:43:33.284Z,99934.10
2018-12-13T22:46:00.716Z,99935.30
2018-12-13T22:48:28.174Z,99931.38
2018-12-13T22:50:55.599Z,99929.44
2018-12-13T22:53:23.047Z,99932.17
2018-12-13T22:55:50.470Z,99932.55
2018-12-13T22:58:17.909Z,99934.11
2018-12-13T23:00:45.395Z,99930.95
2018-12-13T23:03:12.846Z,99934.78
2018-12-13T23:05:40.309Z,99927.30
2018-12-13T23:08:08.919Z,99925.75
2018-12-13T23:10:36.442Z,99924.39
2018-12-13T23:13:03.904Z,99914.57
2018-12-13T23:15:31.327Z,99918.17
2018-12-13T23:17:58.761Z,99915.59
2018-12-13T23:20:26.206Z,99919.77
2018-12-13T23:22:53.629Z,99925.79
2018-12-13T23:25:21.048Z,99924.69
2018-12-13T23:27:48.473Z,99924.48
2018-12-13T23:30:15.908Z,99922.10
2018-12-13T23:32:43.647Z,99926.43
2018-12-13T23:35:11.241Z,99924.53
2018-12-13T23:37:38.655Z,99929.59
2018-12-13T23:40:06.123Z,99929.98
2018-12-13T23:42:33.650Z,99925.23
2018-12-13T23:45:01.090Z,99925.19
2018-12-13T23:47:28.577Z,99922.07
2018-12-13T23:49:56.077Z,99922.50
2018-12-13T23:52:23.506Z,99916.67
2018-12-13T23:54:50.949Z,99914.81
2018-12-13T23:57:18.624Z,99903.28
2018-12-13T23:59:46.103Z,99903.59
